Terminal Aerodrome Forecast
Issued by NWS

Home | Current Version | Previous Version | Graphics & Text | Print | Product List | Glossary On
Versions: 1 2 3 4 5 6 7 8 9 10 11 12 13 14 15 16 17 18
000
FTUS43 KICT 252328
TAFRSL
TAF
KRSL 252328Z 2600/2624 36015KT P6SM -RA OVC040
     FM260300 36010KT P6SM BKN100
     FM260900 29005KT P6SM SCT250
     FM261800 23010KT P6SM SCT250=

USA.gov is the U.S. government's official web portal to all federal, state and local government web resources and services.